sensor_id;sensor_type;location;lat;lon;timestamp;P1;durP1;ratioP1;P2;durP2;ratioP2
17261;SDS011;9873;52.236;21.002;2022-09-23T00:05:38;7.50;;;6.00;;
17261;SDS011;9873;52.236;21.002;2022-09-23T00:15:42;12.23;;;7.30;;
17261;SDS011;9873;52.236;21.002;2022-09-23T00:25:56;11.53;;;7.30;;
17261;SDS011;9873;52.236;21.002;2022-09-23T00:36:07;10.57;;;7.73;;
17261;SDS011;9873;52.236;21.002;2022-09-23T00:46:14;11.40;;;7.83;;
17261;SDS011;9873;52.236;21.002;2022-09-23T00:56:19;11.80;;;8.10;;
17261;SDS011;9873;52.236;21.002;2022-09-23T01:06:29;11.23;;;7.23;;
17261;SDS011;9873;52.236;21.002;2022-09-23T01:16:45;10.57;;;7.70;;
17261;SDS011;9873;52.236;21.002;2022-09-23T01:47:43;10.13;;;6.70;;
17261;SDS011;9873;52.236;21.002;2022-09-23T01:57:56;12.70;;;7.50;;
17261;SDS011;9873;52.236;21.002;2022-09-23T02:08:04;9.57;;;7.43;;
17261;SDS011;9873;52.236;21.002;2022-09-23T02:18:12;9.33;;;6.90;;
17261;SDS011;9873;52.236;21.002;2022-09-23T02:28:17;11.53;;;6.70;;
17261;SDS011;9873;52.236;21.002;2022-09-23T02:38:37;8.80;;;6.33;;
17261;SDS011;9873;52.236;21.002;2022-09-23T02:48:52;11.47;;;6.93;;
17261;SDS011;9873;52.236;21.002;2022-09-23T02:59:00;9.10;;;6.77;;
17261;SDS011;9873;52.236;21.002;2022-09-23T03:09:13;9.47;;;6.50;;
17261;SDS011;9873;52.236;21.002;2022-09-23T03:29:22;10.77;;;6.27;;
17261;SDS011;9873;52.236;21.002;2022-09-23T03:39:34;9.63;;;6.77;;
17261;SDS011;9873;52.236;21.002;2022-09-23T03:49:47;8.63;;;7.00;;
17261;SDS011;9873;52.236;21.002;2022-09-23T03:59:50;10.03;;;6.83;;
17261;SDS011;9873;52.236;21.002;2022-09-23T04:09:52;9.87;;;7.80;;
17261;SDS011;9873;52.236;21.002;2022-09-23T04:19:55;11.00;;;7.07;;
17261;SDS011;9873;52.236;21.002;2022-09-23T04:29:57;10.13;;;7.03;;
17261;SDS011;9873;52.236;21.002;2022-09-23T04:40:01;10.33;;;7.00;;
17261;SDS011;9873;52.236;21.002;2022-09-23T04:50:06;12.53;;;7.90;;
17261;SDS011;9873;52.236;21.002;2022-09-23T05:00:10;11.20;;;7.07;;
17261;SDS011;9873;52.236;21.002;2022-09-23T05:10:16;9.90;;;5.93;;
17261;SDS011;9873;52.236;21.002;2022-09-23T05:20:19;11.07;;;5.70;;
17261;SDS011;9873;52.236;21.002;2022-09-23T05:30:23;12.07;;;6.17;;
17261;SDS011;9873;52.236;21.002;2022-09-23T05:40:27;12.20;;;6.13;;
17261;SDS011;9873;52.236;21.002;2022-09-23T05:50:29;12.53;;;6.03;;
17261;SDS011;9873;52.236;21.002;2022-09-23T06:00:32;8.67;;;5.97;;
17261;SDS011;9873;52.236;21.002;2022-09-23T06:10:43;8.33;;;6.00;;
17261;SDS011;9873;52.236;21.002;2022-09-23T06:20:53;9.27;;;6.07;;
17261;SDS011;9873;52.236;21.002;2022-09-23T06:30:59;8.73;;;5.37;;
17261;SDS011;9873;52.236;21.002;2022-09-23T06:41:04;10.02;;;5.45;;
17261;SDS011;9873;52.236;21.002;2022-09-23T06:51:08;9.93;;;5.30;;
17261;SDS011;9873;52.236;21.002;2022-09-23T07:01:15;9.23;;;4.95;;
17261;SDS011;9873;52.236;21.002;2022-09-23T07:11:18;7.10;;;4.18;;
17261;SDS011;9873;52.236;21.002;2022-09-23T07:21:25;7.95;;;4.22;;
17261;SDS011;9873;52.236;21.002;2022-09-23T07:31:30;5.72;;;3.65;;
17261;SDS011;9873;52.236;21.002;2022-09-23T07:41:40;6.35;;;3.75;;
17261;SDS011;9873;52.236;21.002;2022-09-23T07:51:47;6.20;;;4.30;;
17261;SDS011;9873;52.236;21.002;2022-09-23T08:01:50;5.15;;;4.50;;
17261;SDS011;9873;52.236;21.002;2022-09-23T08:11:53;5.70;;;4.50;;
17261;SDS011;9873;52.236;21.002;2022-09-23T08:22:01;5.38;;;4.35;;
17261;SDS011;9873;52.236;21.002;2022-09-23T08:32:08;5.25;;;4.30;;
17261;SDS011;9873;52.236;21.002;2022-09-23T08:42:19;5.85;;;4.22;;
17261;SDS011;9873;52.236;21.002;2022-09-23T09:02:50;4.28;;;3.50;;
17261;SDS011;9873;52.236;21.002;2022-09-23T09:13:07;4.40;;;3.15;;
17261;SDS011;9873;52.236;21.002;2022-09-23T09:23:21;2.67;;;2.25;;
17261;SDS011;9873;52.236;21.002;2022-09-23T09:33:44;2.95;;;2.33;;
17261;SDS011;9873;52.236;21.002;2022-09-23T09:43:50;2.65;;;1.85;;
17261;SDS011;9873;52.236;21.002;2022-09-23T09:54:19;2.17;;;1.10;;
17261;SDS011;9873;52.236;21.002;2022-09-23T10:04:31;2.65;;;1.23;;
17261;SDS011;9873;52.236;21.002;2022-09-23T10:14:37;2.97;;;1.08;;
17261;SDS011;9873;52.236;21.002;2022-09-23T10:24:39;1.42;;;1.20;;
17261;SDS011;9873;52.236;21.002;2022-09-23T10:34:50;1.75;;;1.05;;
17261;SDS011;9873;52.236;21.002;2022-09-23T11:05:59;1.50;;;1.20;;
17261;SDS011;9873;52.236;21.002;2022-09-23T11:37:23;1.42;;;1.10;;
17261;SDS011;9873;52.236;21.002;2022-09-23T11:47:30;1.20;;;1.10;;
17261;SDS011;9873;52.236;21.002;2022-09-23T11:57:56;1.77;;;0.90;;
17261;SDS011;9873;52.236;21.002;2022-09-23T12:08:16;1.75;;;1.45;;
17261;SDS011;9873;52.236;21.002;2022-09-23T12:28:59;1.80;;;1.70;;
17261;SDS011;9873;52.236;21.002;2022-09-23T12:39:05;3.22;;;1.10;;
17261;SDS011;9873;52.236;21.002;2022-09-23T12:49:27;1.85;;;1.10;;
17261;SDS011;9873;52.236;21.002;2022-09-23T12:59:55;1.67;;;1.20;;
17261;SDS011;9873;52.236;21.002;2022-09-23T13:10:14;1.77;;;1.30;;
17261;SDS011;9873;52.236;21.002;2022-09-23T13:30:27;2.50;;;1.83;;
17261;SDS011;9873;52.236;21.002;2022-09-23T13:40:36;2.78;;;2.10;;
17261;SDS011;9873;52.236;21.002;2022-09-23T13:50:48;1.67;;;0.80;;
17261;SDS011;9873;52.236;21.002;2022-09-23T14:00:52;1.45;;;1.30;;
17261;SDS011;9873;52.236;21.002;2022-09-23T14:10:55;2.50;;;1.38;;
17261;SDS011;9873;52.236;21.002;2022-09-23T14:20:58;2.63;;;1.65;;
17261;SDS011;9873;52.236;21.002;2022-09-23T14:31:02;2.05;;;1.42;;
17261;SDS011;9873;52.236;21.002;2022-09-23T14:41:21;1.70;;;1.50;;
17261;SDS011;9873;52.236;21.002;2022-09-23T14:51:29;3.10;;;1.00;;
17261;SDS011;9873;52.236;21.002;2022-09-23T15:01:33;4.75;;;1.63;;
17261;SDS011;9873;52.236;21.002;2022-09-23T15:11:42;2.47;;;1.25;;
17261;SDS011;9873;52.236;21.002;2022-09-23T15:21:45;2.33;;;1.80;;
17261;SDS011;9873;52.236;21.002;2022-09-23T15:31:53;2.65;;;1.52;;
17261;SDS011;9873;52.236;21.002;2022-09-23T15:41:58;3.00;;;1.40;;
17261;SDS011;9873;52.236;21.002;2022-09-23T15:52:09;2.22;;;1.42;;
17261;SDS011;9873;52.236;21.002;2022-09-23T16:02:16;3.05;;;1.30;;
17261;SDS011;9873;52.236;21.002;2022-09-23T16:12:23;3.45;;;2.00;;
17261;SDS011;9873;52.236;21.002;2022-09-23T16:22:32;2.38;;;1.50;;
17261;SDS011;9873;52.236;21.002;2022-09-23T16:32:39;2.28;;;1.65;;
17261;SDS011;9873;52.236;21.002;2022-09-23T16:42:41;3.67;;;1.90;;
17261;SDS011;9873;52.236;21.002;2022-09-23T16:52:51;2.33;;;1.90;;
17261;SDS011;9873;52.236;21.002;2022-09-23T17:02:59;2.38;;;1.73;;
17261;SDS011;9873;52.236;21.002;2022-09-23T17:13:20;4.93;;;2.13;;
17261;SDS011;9873;52.236;21.002;2022-09-23T17:23:26;2.93;;;2.30;;
17261;SDS011;9873;52.236;21.002;2022-09-23T17:33:29;3.43;;;2.00;;
17261;SDS011;9873;52.236;21.002;2022-09-23T17:43:38;3.80;;;2.30;;
17261;SDS011;9873;52.236;21.002;2022-09-23T17:53:44;5.67;;;2.37;;
17261;SDS011;9873;52.236;21.002;2022-09-23T18:03:52;7.23;;;3.53;;
17261;SDS011;9873;52.236;21.002;2022-09-23T18:14:00;4.78;;;3.38;;
17261;SDS011;9873;52.236;21.002;2022-09-23T18:24:09;3.77;;;2.80;;
17261;SDS011;9873;52.236;21.002;2022-09-23T18:34:36;7.35;;;3.53;;
17261;SDS011;9873;52.236;21.002;2022-09-23T18:44:41;8.03;;;4.10;;
17261;SDS011;9873;52.236;21.002;2022-09-23T18:54:44;4.67;;;3.00;;
17261;SDS011;9873;52.236;21.002;2022-09-23T19:04:46;5.03;;;2.90;;
17261;SDS011;9873;52.236;21.002;2022-09-23T19:14:50;4.40;;;2.30;;
17261;SDS011;9873;52.236;21.002;2022-09-23T19:24:53;5.80;;;4.07;;
17261;SDS011;9873;52.236;21.002;2022-09-23T19:34:58;3.30;;;2.50;;
17261;SDS011;9873;52.236;21.002;2022-09-23T19:45:03;2.70;;;2.23;;
17261;SDS011;9873;52.236;21.002;2022-09-23T19:55:05;4.40;;;2.50;;
17261;SDS011;9873;52.236;21.002;2022-09-23T20:05:08;3.80;;;2.50;;
17261;SDS011;9873;52.236;21.002;2022-09-23T20:15:15;7.07;;;2.80;;
17261;SDS011;9873;52.236;21.002;2022-09-23T20:25:17;5.10;;;2.83;;
17261;SDS011;9873;52.236;21.002;2022-09-23T20:35:23;3.63;;;2.30;;
17261;SDS011;9873;52.236;21.002;2022-09-23T20:45:30;3.63;;;2.80;;
17261;SDS011;9873;52.236;21.002;2022-09-23T20:55:34;5.80;;;2.73;;
17261;SDS011;9873;52.236;21.002;2022-09-23T21:05:39;4.93;;;2.70;;
17261;SDS011;9873;52.236;21.002;2022-09-23T21:15:43;4.23;;;2.60;;
17261;SDS011;9873;52.236;21.002;2022-09-23T21:25:45;5.50;;;2.93;;
17261;SDS011;9873;52.236;21.002;2022-09-23T21:35:58;7.50;;;3.93;;
17261;SDS011;9873;52.236;21.002;2022-09-23T21:46:05;4.80;;;3.33;;
17261;SDS011;9873;52.236;21.002;2022-09-23T21:56:26;4.40;;;3.37;;
17261;SDS011;9873;52.236;21.002;2022-09-23T22:06:38;5.70;;;2.73;;
17261;SDS011;9873;52.236;21.002;2022-09-23T22:16:44;11.90;;;3.90;;
17261;SDS011;9873;52.236;21.002;2022-09-23T22:26:53;7.20;;;4.87;;
17261;SDS011;9873;52.236;21.002;2022-09-23T22:36:58;5.03;;;3.77;;
17261;SDS011;9873;52.236;21.002;2022-09-23T22:47:08;4.30;;;3.20;;
17261;SDS011;9873;52.236;21.002;2022-09-23T22:57:12;8.83;;;3.70;;
17261;SDS011;9873;52.236;21.002;2022-09-23T23:07:16;5.50;;;3.97;;
17261;SDS011;9873;52.236;21.002;2022-09-23T23:17:23;6.50;;;4.17;;
17261;SDS011;9873;52.236;21.002;2022-09-23T23:27:31;8.77;;;5.67;;
17261;SDS011;9873;52.236;21.002;2022-09-23T23:37:33;9.47;;;6.20;;
17261;SDS011;9873;52.236;21.002;2022-09-23T23:47:38;11.57;;;7.20;;
17261;SDS011;9873;52.236;21.002;2022-09-23T23:57:41;11.37;;;7.13;;
